Pittsburgh, Pennsylvania
Current Conditions -  °F | °C
As of 6:53 AM on Wednesday 26 Nov 2014 (Local Time) from KAGC Reporting Station
Overcast Overcast  
Wind Chill: 33°   Ceiling: 9500
Heat Index: 33°   Visibility: 10mi
Dew Point: 23°   Wind: 3mph
Humidity: 66%   Direction: NA
Pressure: 30.06"   Gusts: NA
Location:  40.44°N, 80°W
Report Text: KAGC 261153Z VRB03KT 10SM OVC095 01/M05 A3006 RMK AO2 SLP193 T00061050 10011 21006 55014
Loading
Personal Weather Stations






























Interactive Weather Map New forecast layout! Learn more

10-Day Weather Forecast

Advertisements
Track Severe Weather on mobile